MDT,Max TemperatureF,Mean TemperatureF,Min TemperatureF,Max Dew PointF,MeanDew PointF,Min DewpointF,Max Humidity, Mean Humidity, Min Humidity, Max Sea Level PressureIn, Mean Sea Level PressureIn, Min Sea Level PressureIn, Max VisibilityMiles, Mean VisibilityMiles, Min VisibilityMiles, Max Wind SpeedMPH, Mean Wind SpeedMPH, Max Gust SpeedMPH,PrecipitationIn, CloudCover, Events, WindDirDegrees
2013-9-1,85,65,45,43,37,31,76,46,16,29.99,29.92,29.85,10,10,10,9,2,13,0.00,0,,142
2013-9-2,75,63,50,55,47,40,84,63,41,30.00,29.92,29.85,10,10,9,14,2,22,0.01,4,Rain,50
2013-9-3,75,65,54,57,54,51,90,67,43,30.07,30.03,29.98,10,10,8,13,3,21,0.06,3,Rain,168
2013-9-4,82,68,53,56,52,50,93,65,36,30.12,30.05,29.97,10,10,10,16,4,18,0.01,2,Rain-Thunderstorm,352
2013-9-5,76,65,54,57,54,51,100,73,46,30.18,30.03,29.86,10,10,5,23,5,32,0.23,5,Rain-Thunderstorm,338
2013-9-6,70,58,46,55,48,33,100,63,26,30.17,30.07,29.96,10,7,0,16,4,22,0.00,4,Fog,199
2013-9-7,75,57,39,43,38,32,89,56,23,30.12,30.07,30.01,10,10,10,12,3,15,0.00,0,,237
2013-9-8,72,57,41,44,41,37,89,60,31,30.04,30.00,29.96,10,10,10,17,5,22,0.00,1,,312
2013-9-9,75,59,42,44,41,38,83,56,29,30.04,30.00,29.96,10,10,10,16,6,22,0.00,1,,348
2013-9-10,81,62,42,45,40,32,83,51,19,30.10,29.99,29.94,10,10,10,14,5,18,0.00,0,,339
2013-9-11,86,66,45,43,37,30,76,46,15,30.08,30.02,29.96,10,10,10,15,4,20,0.00,0,,342
2013-9-12,80,66,52,56,45,37,72,52,32,30.05,29.99,29.94,10,10,9,13,3,25,0.01,5,Rain,335
2013-9-13,73,64,54,57,55,52,93,75,57,30.06,29.94,29.83,10,10,9,16,3,21,0.07,6,Rain-Thunderstorm,204
2013-9-14,78,66,53,51,47,40,93,61,29,29.93,29.88,29.84,10,10,10,14,5,22,T,3,,41
2013-9-15,79,65,50,52,47,43,83,57,30,30.00,29.85,29.76,10,10,9,20,6,24,0.05,3,Rain-Thunderstorm,123
2013-9-16,74,61,47,54,42,28,100,60,20,29.97,29.85,29.81,10,10,2,20,6,26,T,1,Rain,156
2013-9-17,65,55,44,45,41,36,86,65,43,29.83,29.73,29.62,10,10,10,24,5,36,0.02,4,Rain,278
2013-9-18,49,42,34,41,38,34,92,82,71,30.17,29.98,29.78,10,9,2,14,3,18,0.30,7,Rain,311
2013-9-19,63,46,29,40,31,27,100,64,27,30.25,30.17,30.07,10,4,0,13,3,15,0.00,2,Fog,146
2013-9-20,75,53,30,37,31,24,85,50,15,30.06,29.87,29.68,10,10,10,17,4,24,0.00,0,,129
2013-9-21,64,53,42,39,35,30,76,53,30,29.73,29.68,29.63,10,10,10,18,4,23,0.00,2,,187
2013-9-22,56,51,45,41,37,32,76,62,47,29.82,29.72,29.62,10,10,9,17,5,21,0.02,7,Rain,218
2013-9-23,58,49,39,41,37,32,96,69,41,30.00,29.95,29.83,10,10,6,17,4,23,0.02,5,Rain,194
2013-9-24,47,43,39,43,39,37,93,82,71,29.93,29.84,29.77,10,8,2,14,4,18,0.67,8,Rain,167
2013-9-25,43,39,35,37,35,33,92,86,79,29.78,29.72,29.68,10,10,10,13,6,18,0.05,8,Rain,287
2013-9-26,49,42,35,34,31,25,92,66,39,30.00,29.84,29.75,10,10,10,17,9,25,T,5,Rain,327
2013-9-27,50,42,33,37,31,26,92,67,42,30.09,30.05,30.00,10,10,6,17,5,33,0.26,7,Rain,234
2013-9-28,51,45,38,42,38,35,92,77,61,30.08,30.01,29.83,10,10,6,22,8,28,0.29,8,Rain,136
2013-9-29,54,46,38,42,37,34,92,69,46,29.87,29.81,29.67,10,7,2,33,8,47,1.46,8,Rain,187
2013-9-30,50,41,31,45,35,26,92,67,42,30.00,29.80,29.63,10,9,3,25,8,38,0.51,6,Rain,204